Pucha Pucha, Argentina
Current Conditions -  °F | °C
As of 2:00 PM on Tuesday 21 Oct 2014 (Local Time) from SCAT Reporting Station
Few Clouds Few Clouds  
Wind Chill: 66°   Ceiling: Unl
Heat Index: 66°   Visibility: 6mi
Dew Point: 52°   Wind: 5mph
Humidity: 60%   Direction: 320°NW
Pressure: 30.03"   Gusts: NA
Location:  28.34°S, 69.22°W
Report Text: SCAT 211700Z 32004KT 260V130 9999 FEW026 19/11 Q1017
Loading
Personal Weather Stations






























Interactive Weather Map New forecast layout! Learn more

10-Day Weather Forecast

Advertisements
Track Severe Weather on mobile